»·PEaware :: WWW712 KLAS-KTNX

WWW712 :: KLAS-KTNX

FLIGHT INFORMATION

Flight Status: Arrived
Operator: Unknown
More flights by this operator :: More flights under this callsign
Pilot: Karsten W. (28069)
Aircraft: BOEING 737-600
(B736)
More flights by this aircraft type
Origin: KLAS McCarran Intl
United States
Destination: KTNX Tonopah Test Range
United States
More flights between these airports :: More routes between these airports
Route: +MCCRN5 LAS FIDOE LAS294052/JAYSN BTY060030/TUNDY
File this flight plan on PilotEdge
Remarks: STS / STATE
Altitude:
(Current/Filed)
30,000ft
Speed:
(Current/Filed)
440kts
Departed: 27-Feb-20 12:39 PM
Arrived: 27-Feb-20 01:17 PM
Distance/Time
Traveled:
130nm/0:38
Distance/Time
To Go:
Arrived

Flight Plot

Page will automatically refresh every two minutes.


Map Options




Map Legend


Flown Route
Filed Route
Departure Airport
Arrival Airport
Navaid (VOR, NDB)
Fix

Horizontal Profiles

Position Reports

Time Latitude Longitude Heading Altitude Ground
Speed
27-Feb-20 12:10 36.091182 -115.164974 54 2123ft 0kts
27-Feb-20 12:11 36.091182 -115.164974 54 2123ft 0kts
27-Feb-20 12:12 36.091182 -115.164974 54 2123ft 0kts
27-Feb-20 12:13 36.091182 -115.164974 54 2123ft 0kts
27-Feb-20 12:14 36.091182 -115.164974 54 2123ft 0kts
27-Feb-20 12:15 36.091182 -115.164974 54 2123ft 0kts
27-Feb-20 12:16 36.091182 -115.164974 54 2123ft 0kts
27-Feb-20 12:17 36.091182 -115.164974 54 2123ft 0kts
27-Feb-20 12:18 36.091182 -115.164974 54 2123ft 0kts
27-Feb-20 12:19 36.091182 -115.164974 54 2123ft 0kts
27-Feb-20 12:20 36.091182 -115.164974 54 2123ft 0kts
27-Feb-20 12:21 36.091182 -115.164974 54 2123ft 0kts
27-Feb-20 12:22 36.091182 -115.164974 54 2123ft 0kts
27-Feb-20 12:23 36.091182 -115.164974 54 2123ft 0kts
27-Feb-20 12:24 36.091182 -115.164974 54 2123ft 0kts
27-Feb-20 12:25 36.091182 -115.164974 54 2123ft 0kts
27-Feb-20 12:26 36.091182 -115.164974 54 2123ft 0kts
27-Feb-20 12:27 36.091182 -115.164974 54 2123ft 0kts
27-Feb-20 12:28 36.091182 -115.164974 54 2123ft 0kts
27-Feb-20 12:29 36.091182 -115.164974 54 2123ft 0kts
27-Feb-20 12:30 36.091182 -115.164974 54 2123ft 0kts
27-Feb-20 12:31 36.091182 -115.164974 54 2123ft 0kts
27-Feb-20 12:32 36.091182 -115.164974 54 2123ft 0kts
27-Feb-20 12:33 36.092277 -115.162944 29 2123ft 15kts
27-Feb-20 12:34 36.094770 -115.161583 22 2123ft 7kts
27-Feb-20 12:35 36.097894 -115.159765 24 2123ft 17kts
27-Feb-20 12:36 36.099010 -115.157856 114 2123ft 0kts
27-Feb-20 12:37 36.099009 -115.157854 114 2123ft 0kts
27-Feb-20 12:38 36.095660 -115.158551 202 2123ft 63kts
27-Feb-20 12:39 36.058291 -115.181412 205 3550ft 178kts
27-Feb-20 12:40 36.012080 -115.226680 230 5189ft 257kts
27-Feb-20 12:41 35.964216 -115.300935 231 8161ft 286kts
27-Feb-20 12:42 35.912515 -115.379438 231 11112ft 307kts
27-Feb-20 12:43 35.853546 -115.462733 231 13880ft 332kts
27-Feb-20 12:44 35.790482 -115.551833 231 16173ft 370kts
27-Feb-20 12:45 35.771407 -115.672300 303 17707ft 399kts
27-Feb-20 12:46 35.872348 -115.703035 23 19447ft 422kts
27-Feb-20 12:47 35.979999 -115.646125 19 20829ft 416kts
27-Feb-20 12:48 36.087953 -115.591649 19 22904ft 430kts
27-Feb-20 12:49 36.202601 -115.536628 7 24294ft 444kts
27-Feb-20 12:50 36.311635 -115.586112 311 25881ft 433kts
27-Feb-20 12:51 36.385000 -115.703982 304 27684ft 430kts
27-Feb-20 12:52 36.453411 -115.824840 303 29693ft 421kts
27-Feb-20 12:53 36.519759 -115.943677 302 30446ft 419kts
27-Feb-20 12:54 36.603148 -116.041860 336 30452ft 433kts
27-Feb-20 12:56 36.719596 -116.083181 341 30450ft 437kts
27-Feb-20 12:57 36.837728 -116.118348 341 30451ft 436kts
27-Feb-20 12:58 36.950119 -116.169534 326 30453ft 427kts
27-Feb-20 12:59 37.052040 -116.245293 324 30456ft 426kts
27-Feb-20 13:00 37.152755 -116.324232 324 30458ft 422kts
27-Feb-20 13:01 37.249951 -116.401465 325 26929ft 420kts
27-Feb-20 13:02 37.345961 -116.478035 325 24901ft 382kts
27-Feb-20 13:03 37.427392 -116.543355 325 24498ft 319kts
27-Feb-20 13:04 37.502225 -116.603597 325 24487ft 321kts
27-Feb-20 13:05 37.577490 -116.664361 325 24492ft 321kts
27-Feb-20 13:06 37.652929 -116.725425 325 24356ft 320kts
27-Feb-20 13:07 37.730098 -116.788053 325 20837ft 353kts
27-Feb-20 13:08 37.818438 -116.859799 326 15758ft 388kts
27-Feb-20 13:09 37.903449 -116.929454 326 13757ft 338kts
27-Feb-20 13:10 37.938040 -117.018579 241 12364ft 305kts
27-Feb-20 13:11 37.865625 -117.025082 144 11143ft 295kts
27-Feb-20 13:12 37.808063 -116.968488 142 10997ft 229kts
27-Feb-20 13:12 37.775236 -116.914368 110 9451ft 247kts
27-Feb-20 13:14 37.753754 -116.815771 107 7788ft 251kts
27-Feb-20 13:15 37.742672 -116.745416 38 7253ft 183kts
27-Feb-20 13:15 37.775373 -116.767302 333 5720ft 175kts
27-Feb-20 13:17 37.801514 -116.782228 60 5557ft 5kts

Navigation Log

Ident Type
Flight plan parsing failed, navigation log unavailable